Aviation Digital Data Service (ADDS)

Output produced by METARs form (0014 UTC 17 December 2017)
found at http://www.aviationweather.gov/adds/metars/
 
METAR text: KGYI 162355Z AUTO 18011KT 10SM -RA OVC060 08/06 A3007 RMK AO2 P0003 60004 T00780056 10167 20078
Conditions at: KGYI (SHERMAN/DENISON , TX, US) observed 2355 UTC 16 December 2017
Temperature: 7.8°C (46°F)
Dewpoint: 5.6°C (42°F) [RH = 86%]
Pressure (altimeter): 30.07 inches Hg (1018.4 mb)
Winds: from the S (180 degrees) at 13 MPH (11 knots; 5.7 m/s)
Visibility: 10 or more miles (16+ km)
Ceiling: 6000 feet AGL
Clouds: overcast cloud deck at 6000 feet AGL
Weather: -RA  (light rain)